Terminal Aerodrome Forecast
Issued by NWS Charleston, SC

Home | Current Version | Previous Version | Text Only | Print | Product List | Glossary On
Versions: 1 2 3 4 5 6 7 8 9 10 11 12 13 14
294
FTUS42 KCHS 250520
TAFCHS
TAF
KCHS 250520Z 2506/2606 01006KT P6SM BKN250
     FM251500 01009KT P6SM SCT040 BKN250
     FM260000 01006KT P6SM FEW070 SCT250=

USA.gov is the U.S. government's official web portal to all federal, state and local government web resources and services.